Airfield :
LOGIN :

Register | Disclaimer

   EN    FR    IT 

 










Legend :    VFR   Marginal VFR   IFR   Intensive IFR   Very Intensive IFR
Visi :
Ceiling :
>= 8 km
>= 3000ft
5 to 8 km
1000 to 3000 ft
1500m to 5 km
500 to 1000 ft
800 to 1500m
200 to 500 ft
< 800m
< 200 ft
Symbols :   Thunderstorms  Fog  Heavy snow  Heavy precipitations  Wind > 20 kt
SIGMETs :     Misc.  Thunderstorms  Icing  Turbulence  Mountain Waves  Volcanic Ashes






- Airport Elevation : 97 ft
- IATA code : EBJ


EKEB - Esbjerg

CURRENT METAR :
  • 180450Z AUTO 24008KT 9999 FEW019/// 13/10 Q1013

EXPIRED METARs :
  • 180420Z AUTO 24006KT 9999 NCD 13/11 Q1013
  • 180350Z AUTO 25006KT 9999 FEW025/// 12/10 Q1013
  • 180320Z AUTO 25007KT 9999 BKN024/// 12/11 Q1013
  • 180250Z AUTO 24007KT 9999 BKN018/// 12/12 Q1013
  • 180220Z AUTO 24006KT 9999 -RA BKN012/// 13/12 Q1013
  • 180150Z AUTO 21007KT 9999 BKN015/// BKN040/// 13/12 Q1012
  • 180120Z AUTO 22008KT 9999 SCT014/// BKN049/// 13/11 Q1012
  • 180050Z AUTO 22010KT 9000 +DZ BKN016/// BKN034/// 13/12 Q1012
  • 180020Z AUTO 21008KT 180V240 9999 OVC034/// 14/11 Q1012

TAF TAF EKEB
Valid from the 18 at 03:00 until the 18 at 12:00 UTC


180226Z 1803/1812 25008KT 9999 BKN015
TEMPO 1803/1804 BKN012 SCT015TCU



MET'MAP, your aeronautical weather chart ! - Copyright ORBIFLY December 2007 - Disclaimer

ORBIFLY MET'MAP TEAM :

Programming & Development : Alexandra Zaïnal
Original concept : Baudouin d'Aumeries
Technical & hardware support : Manuel Goepfert
Assistance : Marc-Olivier Méhu




SOURCES & CREDITS :

   NOAA